ドバイ の空港の天気 - METARとTAF

ドバイ国際空港 ( OMDB / DXB ) - アラブ首長国連邦 ドバイ
飛行場実況気象(Metar)
観測時間01/23 06:00 GST (01/23 02:00 UTC)
風向・風速東北東 2m/s
視程10km以上
天気現象
なし
気温16℃
湿度68%
気圧1019hPa
METAROMDB 230200Z 06004KT 040V110 CAVOK 16/10 Q1019 NOSIG
過去の天気等 Google飛行場航空写真 Wunderground天気予報

過去48時間のMETAR

飛行場予報(TAF)
発表時間: 1/23 03:00 GST (1/22 23:00 UTC)
予報対象時間: 23日4時 GST ~ 24日10時 GST
風向・風速東 4m/s
視程10km以上
少しの雲 雲底高度 910m
23日14時 GST から 確率 30% で
風向・風速北北東 5m/s
TAF OMDB 222300Z 2300/2406 09008KT 9999 FEW030
PROB30 2310/2314 02010KT